Time;durP1;ratioP1;P1;durP2;ratioP2;P2;SDS_P1;SDS_P2;PMS_P1;PMS_P2;Temp;Humidity;BMP_temperature;BMP_pressure;BME280_temperature;BME280_humidity;BME280_pressure;Samples;Min_cycle;Max_cycle;Signal;HPM_P1;HPM_P2
2023/05/14 00:01:47;;;;;;;13.30;11.77;;;;;;;12.19;72.15;101502.22;4992551;28;20477;-78
2023/05/14 00:04:16;;;;;;;12.23;11.00;;;;;;;12.13;72.08;101510.28;4992191;28;20436;-78
2023/05/14 00:06:44;;;;;;;12.60;11.50;;;;;;;12.05;72.50;101505.03;4995086;28;20474;-78
2023/05/14 00:09:13;;;;;;;16.53;12.17;;;;;;;12.06;72.54;101503.97;4998861;28;20406;-79
2023/05/14 00:11:44;;;;;;;14.40;13.07;;;;;;;12.05;72.56;101499.59;4994575;28;20519;-80
2023/05/14 00:14:13;;;;;;;19.60;12.23;;;;;;;12.14;72.15;101499.25;4994091;28;20459;-80
2023/05/14 00:16:42;;;;;;;12.70;10.43;;;;;;;12.23;71.61;101497.22;4995476;28;20439;-80
2023/05/14 00:19:10;;;;;;;12.20;10.23;;;;;;;12.19;71.60;101496.78;4984362;28;20473;-82
2023/05/14 00:21:40;;;;;;;11.07;10.10;;;;;;;12.09;71.98;101496.28;4983818;28;20437;-81
2023/05/14 00:24:09;;;;;;;13.20;12.00;;;;;;;12.25;71.67;101497.03;4983603;28;20448;-79
2023/05/14 00:26:38;;;;;;;11.60;10.30;;;;;;;12.25;71.06;101492.41;4984139;28;20397;-81
2023/05/14 00:29:08;;;;;;;11.73;10.47;;;;;;;12.11;72.03;101494.19;4997815;28;20440;-78
2023/05/14 00:31:38;;;;;;;13.80;10.83;;;;;;;12.12;71.80;101495.03;5015548;28;20462;-79
2023/05/14 00:34:07;;;;;;;16.87;13.03;;;;;;;12.09;72.09;101490.03;5000298;28;20533;-78
2023/05/14 00:36:35;;;;;;;14.90;10.83;;;;;;;12.15;71.84;101489.25;4987672;28;20477;-81
2023/05/14 00:39:04;;;;;;;11.83;10.63;;;;;;;12.22;71.66;101484.69;4997650;28;20401;-78
2023/05/14 00:41:34;;;;;;;13.37;11.97;;;;;;;12.13;71.76;101480.44;4996242;28;20438;-79
2023/05/14 00:44:02;;;;;;;13.73;12.43;;;;;;;12.04;72.37;101481.63;4998586;28;20483;-79
2023/05/14 00:46:33;;;;;;;14.90;11.33;;;;;;;12.10;72.11;101476.25;4997692;28;20517;-79
2023/05/14 00:49:03;;;;;;;14.83;13.33;;;;;;;12.01;72.50;101471.16;4998421;28;20436;-79
2023/05/14 00:51:33;;;;;;;12.60;11.40;;;;;;;11.91;73.30;101476.13;5000005;28;20483;-78
2023/05/14 00:54:02;;;;;;;15.10;12.00;;;;;;;11.83;73.60;101468.09;5002307;28;20422;-78
2023/05/14 00:56:31;;;;;;;13.37;11.97;;;;;;;11.85;73.37;101471.47;5020538;28;20489;-79
2023/05/14 00:59:01;;;;;;;13.53;12.10;;;;;;;11.83;73.80;101473.53;4983893;28;20434;-82
2023/05/14 01:01:31;;;;;;;12.33;11.13;;;;;;;11.90;73.58;101475.28;4982567;28;20501;-81
2023/05/14 01:04:01;;;;;;;15.40;11.70;;;;;;;11.81;74.02;101479.16;4997881;28;20488;-83
2023/05/14 01:06:40;;;;;;;13.27;11.70;;;;;;;11.70;74.38;101468.81;4981809;28;20489;-81
2023/05/14 01:09:17;;;;;;;12.90;11.80;;;;;;;11.71;74.69;101475.91;4997766;28;20473;-82
2023/05/14 01:11:56;;;;;;;12.80;11.43;;;;;;;11.62;75.03;101469.78;4995115;28;20416;-82
2023/05/14 01:14:34;;;;;;;13.37;12.17;;;;;;;11.64;75.21;101475.00;4977032;28;20461;-82
2023/05/14 01:17:06;;;;;;;13.43;12.23;;;;;;;11.52;75.76;101482.00;4983436;28;20473;-82
2023/05/14 01:19:39;;;;;;;14.40;13.00;;;;;;;11.49;75.99;101474.25;5015378;28;20452;-82
2023/05/14 01:22:10;;;;;;;17.03;15.33;;;;;;;11.50;76.13;101478.63;4989929;28;20448;-81
2023/05/14 01:24:40;;;;;;;15.30;13.70;;;;;;;11.58;76.06;101468.50;5016733;28;20825;-81
2023/05/14 01:27:17;;;;;;;28.17;16.70;;;;;;;11.44;76.59;101476.69;4989975;28;20421;-81
2023/05/14 01:29:53;;;;;;;15.97;14.27;;;;;;;11.32;77.44;101479.09;4995419;28;20429;-80
2023/05/14 01:32:24;;;;;;;16.87;15.10;;;;;;;11.23;77.98;101475.66;4994570;28;20449;-81
2023/05/14 01:34:55;;;;;;;15.70;13.93;;;;;;;11.27;78.50;101473.41;4993943;28;20454;-80
2023/05/14 01:37:28;;;;;;;16.73;15.03;;;;;;;11.21;78.77;101469.59;5004142;28;20479;-80
2023/05/14 01:39:57;;;;;;;18.83;16.40;;;;;;;11.22;78.76;101471.28;4994860;28;20498;-77
2023/05/14 01:42:27;;;;;;;17.23;15.63;;;;;;;11.20;79.04;101467.06;5012582;28;20484;-82
2023/05/14 01:44:57;;;;;;;18.53;16.63;;;;;;;11.28;78.91;101461.53;4993454;28;20867;-84
2023/05/14 01:47:26;;;;;;;21.40;14.40;;;;;;;11.35;78.28;101457.03;4994029;28;20480;-80
2023/05/14 01:49:55;;;;;;;17.47;15.90;;;;;;;11.32;78.41;101454.72;4988279;28;20485;-81
2023/05/14 01:52:43;;;;;;;19.00;15.27;;;;;;;11.32;78.18;101454.72;4984259;28;20420;-81
2023/05/14 01:55:29;;;;;;;16.20;14.50;;;;;;;11.26;78.46;101456.31;4984963;28;20858;-82
2023/05/14 01:57:58;;;;;;;14.63;13.20;;;;;;;11.31;78.17;101447.59;4983625;28;20469;-80
2023/05/14 02:00:27;;;;;;;15.43;13.83;;;;;;;11.29;78.08;101455.06;4979764;28;20431;-82
2023/05/14 02:02:59;;;;;;;17.33;15.57;;;;;;;11.23;78.08;101462.09;4983635;28;20491;-82
2023/05/14 02:05:28;;;;;;;19.53;15.60;;;;;;;11.18;78.22;101452.91;5000428;28;20535;-82
2023/05/14 02:07:58;;;;;;;16.13;14.20;;;;;;;11.08;78.57;101453.22;4989558;28;20434;-82
2023/05/14 02:10:27;;;;;;;16.03;14.03;;;;;;;10.96;79.58;101451.19;4979072;28;20888;-84
2023/05/14 02:12:57;;;;;;;14.73;13.20;;;;;;;10.95;80.07;101450.34;4980987;28;20520;-81
2023/05/14 02:15:25;;;;;;;14.50;13.17;;;;;;;10.87;80.48;101445.88;4986454;28;20489;-82
2023/05/14 02:17:54;;;;;;;18.67;14.57;;;;;;;10.90;80.85;101450.91;4991341;28;20471;-79
2023/05/14 02:20:23;;;;;;;14.97;13.47;;;;;;;10.97;80.45;101450.16;4990166;28;20465;-83
2023/05/14 02:22:53;;;;;;;14.63;13.13;;;;;;;11.06;79.66;101454.41;4980162;28;20495;-81
2023/05/14 02:25:23;;;;;;;15.23;13.60;;;;;;;11.25;78.83;101451.91;5015747;28;20474;-79
2023/05/14 02:27:52;;;;;;;15.63;12.80;;;;;;;11.36;77.93;101444.31;4979494;28;20429;-81
2023/05/14 02:30:22;;;;;;;15.77;14.27;;;;;;;11.38;77.68;101442.22;4979205;28;20432;-82
2023/05/14 02:32:52;;;;;;;14.47;13.00;;;;;;;11.57;76.35;101442.41;4979892;28;20433;-82
2023/05/14 02:35:21;;;;;;;13.07;11.67;;;;;;;11.66;75.07;101446.69;4981587;28;20456;-82
2023/05/14 02:37:51;;;;;;;13.83;12.37;;;;;;;11.74;74.36;101443.00;4986072;28;20462;-82
2023/05/14 02:40:20;;;;;;;13.00;11.63;;;;;;;11.79;73.57;101445.97;4981836;28;20445;-80
2023/05/14 02:42:50;;;;;;;13.53;12.13;;;;;;;11.85;73.13;101447.06;5013570;28;20472;-80
2023/05/14 02:45:20;;;;;;;15.67;14.07;;;;;;;11.89;73.21;101446.47;4982061;28;20480;-82
2023/05/14 02:47:49;;;;;;;16.00;12.70;;;;;;;11.91;73.26;101447.09;4982971;28;20435;-83
2023/05/14 02:50:19;;;;;;;14.47;13.07;;;;;;;11.85;73.90;101444.34;4974815;28;20473;-81
2023/05/14 02:52:48;;;;;;;14.30;12.80;;;;;;;11.81;73.82;101445.78;4983529;28;20446;-82
2023/05/14 02:55:18;;;;;;;13.80;12.40;;;;;;;11.94;73.58;101444.00;4983543;28;20473;-81
2023/05/14 02:57:47;;;;;;;13.70;12.40;;;;;;;12.08;72.43;101448.47;4987977;28;20507;-79
2023/05/14 03:00:18;;;;;;;12.87;11.47;;;;;;;12.03;72.48;101442.81;4995974;28;20426;-78
2023/05/14 03:02:48;;;;;;;13.90;12.50;;;;;;;12.08;72.48;101434.91;4999509;28;20454;-79
2023/05/14 03:05:18;;;;;;;13.13;11.83;;;;;;;12.04;72.01;101443.66;5021157;28;20711;-80
2023/05/14 03:07:48;;;;;;;13.13;11.80;;;;;;;12.06;71.20;101447.00;4992899;28;20942;-80
2023/05/14 03:10:17;;;;;;;12.60;11.40;;;;;;;12.11;70.34;101458.09;4996993;28;20421;-81
2023/05/14 03:12:48;;;;;;;13.73;12.43;;;;;;;12.19;70.14;101447.94;4990365;28;20424;-77
2023/05/14 03:15:19;;;;;;;13.37;12.03;;;;;;;12.23;69.97;101442.94;4996807;28;20465;-78
2023/05/14 03:17:48;;;;;;;14.67;13.00;;;;;;;12.25;69.78;101443.56;4993955;28;20449;-79
2023/05/14 03:20:19;;;;;;;13.90;12.47;;;;;;;12.30;69.57;101449.22;4994958;28;20508;-79
2023/05/14 03:22:49;;;;;;;14.50;12.37;;;;;;;12.33;69.63;101446.13;4962317;29;20430;-82
2023/05/14 03:25:18;;;;;;;12.20;11.00;;;;;;;12.28;69.61;101448.59;4964117;28;20493;-81
2023/05/14 03:27:47;;;;;;;12.03;10.87;;;;;;;12.31;69.29;101444.66;4978430;28;20450;-81
2023/05/14 03:30:18;;;;;;;12.60;11.30;;;;;;;12.27;69.39;101446.94;4979574;28;20842;-81
2023/05/14 03:32:49;;;;;;;15.03;12.07;;;;;;;12.33;69.39;101438.00;4979969;28;20441;-81
2023/05/14 03:35:18;;;;;;;13.43;12.00;;;;;;;12.35;69.01;101444.03;4974503;28;20490;-80
2023/05/14 03:37:48;;;;;;;13.80;12.30;;;;;;;12.45;68.34;101444.50;4979111;28;20470;-81
2023/05/14 03:40:17;;;;;;;12.90;10.40;;;;;;;12.42;67.98;101436.78;4988866;28;20536;-78
2023/05/14 03:42:46;;;;;;;12.43;11.27;;;;;;;12.44;67.88;101440.13;4999905;28;20433;-80
2023/05/14 03:45:18;;;;;;;11.80;10.63;;;;;;;12.47;68.05;101431.59;5023364;28;20485;-80
2023/05/14 03:47:47;;;;;;;11.53;10.43;;;;;;;12.46;67.96;101434.50;4989453;28;20466;-78
2023/05/14 03:50:17;;;;;;;11.47;10.43;;;;;;;12.49;67.76;101443.06;4980613;28;21016;-82
2023/05/14 03:52:46;;;;;;;11.43;10.23;;;;;;;12.75;66.55;101441.50;4982617;28;20442;-83
2023/05/14 03:55:16;;;;;;;11.50;10.50;;;;;;;12.72;66.16;101431.06;4978808;28;20474;-82
2023/05/14 03:57:45;;;;;;;10.87;9.90;;;;;;;12.69;66.14;101440.44;4980430;28;20505;-84
2023/05/14 04:00:15;;;;;;;12.07;10.73;;;;;;;12.70;65.99;101433.13;4979598;28;20452;-84
2023/05/14 04:02:46;;;;;;;10.43;9.40;;;;;;;12.79;65.18;101429.19;4980189;28;20465;-82
2023/05/14 04:05:15;;;;;;;18.33;10.30;;;;;;;12.83;64.50;101422.34;4978726;28;20425;-84
2023/05/14 04:07:45;;;;;;;15.07;10.57;;;;;;;12.96;63.98;101425.09;4979957;28;20762;-83
2023/05/14 04:10:14;;;;;;;9.60;8.60;;;;;;;13.03;62.86;101425.94;4979603;28;20777;-82
2023/05/14 04:12:43;;;;;;;10.80;9.10;;;;;;;13.08;62.37;101428.88;4988313;28;20492;-82
2023/05/14 04:15:12;;;;;;;11.63;10.43;;;;;;;13.20;61.65;101431.88;4977963;28;20447;-83
2023/05/14 04:17:42;;;;;;;12.70;8.80;;;;;;;13.25;61.45;101422.06;4989540;28;20993;-83
2023/05/14 04:20:14;;;;;;;12.80;10.03;;;;;;;13.37;60.75;101419.53;4983775;28;20956;-83
2023/05/14 04:22:44;;;;;;;9.13;8.10;;;;;;;13.39;60.23;101421.03;4982477;28;20466;-81
2023/05/14 04:25:13;;;;;;;9.73;8.90;;;;;;;13.39;60.33;101423.75;4996354;28;20462;-79
2023/05/14 04:27:42;;;;;;;9.07;8.20;;;;;;;13.38;59.70;101426.66;4996037;28;20466;-78
2023/05/14 04:30:12;;;;;;;9.70;8.80;;;;;;;13.31;59.80;101417.66;4995183;28;20424;-80
2023/05/14 04:32:41;;;;;;;10.20;9.20;;;;;;;13.22;60.14;101417.00;4980898;28;20427;-79
2023/05/14 04:35:11;;;;;;;8.63;7.83;;;;;;;13.19;60.33;101419.31;4982421;28;21132;-81
2023/05/14 04:37:42;;;;;;;13.20;9.20;;;;;;;13.18;60.67;101415.75;4992665;28;21299;-77
2023/05/14 04:40:12;;;;;;;9.70;8.70;;;;;;;13.16;60.70;101417.03;4977425;28;20455;-78
2023/05/14 04:42:41;;;;;;;10.00;8.90;;;;;;;13.25;60.79;101424.78;4992720;28;20450;-82
2023/05/14 04:45:12;;;;;;;11.80;8.97;;;;;;;13.15;61.32;101421.63;4984290;28;20477;-81
2023/05/14 04:47:41;;;;;;;13.13;8.73;;;;;;;13.15;60.99;101410.75;4993122;28;20439;-80
2023/05/14 04:50:10;;;;;;;10.10;8.67;;;;;;;13.29;60.87;101408.88;4997039;28;20434;-77
2023/05/14 04:52:41;;;;;;;12.57;9.07;;;;;;;13.83;59.81;101422.28;4997086;28;20431;-79
2023/05/14 04:55:11;;;;;;;9.47;7.83;;;;;;;16.13;53.67;101415.56;4999137;28;20501;-79
2023/05/14 04:57:40;;;;;;;9.13;7.60;;;;;;;18.37;47.27;101420.44;4999946;28;20495;-81
2023/05/14 05:00:12;;;;;;;10.87;8.87;;;;;;;19.62;43.50;101423.19;4999464;28;20511;-80
2023/05/14 05:02:43;;;;;;;12.77;8.87;;;;;;;20.57;41.20;101417.50;5000083;28;20432;-81
2023/05/14 05:05:13;;;;;;;9.27;8.37;;;;;;;21.30;39.70;101407.88;5011358;28;20552;-79
2023/05/14 05:07:43;;;;;;;9.63;8.73;;;;;;;21.39;39.61;101404.41;4998931;28;20411;-80
2023/05/14 05:10:13;;;;;;;8.93;8.03;;;;;;;21.63;39.11;101404.88;4999002;28;20434;-78
2023/05/14 05:12:42;;;;;;;12.00;8.80;;;;;;;21.61;39.18;101407.88;4995411;28;20438;-82
2023/05/14 05:15:12;;;;;;;15.00;8.30;;;;;;;22.08;37.63;101398.88;4992574;28;20505;-80
2023/05/14 05:17:41;;;;;;;9.33;8.43;;;;;;;22.33;36.79;101400.94;4994882;28;20413;-82
2023/05/14 05:20:12;;;;;;;9.10;8.20;;;;;;;21.75;37.47;101399.16;4991418;28;20448;-80
2023/05/14 05:22:43;;;;;;;10.13;9.20;;;;;;;19.45;41.06;101404.81;4993658;28;20474;-80
2023/05/14 05:25:12;;;;;;;10.67;9.27;;;;;;;17.92;44.30;101401.06;4992358;28;20458;-80
2023/05/14 05:27:41;;;;;;;11.60;8.40;;;;;;;16.96;46.65;101396.69;4999118;28;20388;-80
2023/05/14 05:30:12;;;;;;;10.13;7.80;;;;;;;16.44;48.42;101403.66;4999665;28;20404;-79
2023/05/14 05:32:41;;;;;;;10.20;8.43;;;;;;;16.37;48.77;101408.34;4999342;28;20419;-79
2023/05/14 05:35:11;;;;;;;9.00;8.10;;;;;;;16.27;49.90;101397.13;4999365;28;20441;-79
2023/05/14 05:37:41;;;;;;;9.20;8.27;;;;;;;16.49;49.44;101406.53;4998451;28;20416;-79
2023/05/14 05:40:12;;;;;;;10.20;8.73;;;;;;;16.81;48.51;101401.75;5028533;28;20532;-81
2023/05/14 05:42:42;;;;;;;8.23;7.40;;;;;;;17.01;48.17;101398.72;4998754;28;20454;-80
2023/05/14 05:45:11;;;;;;;11.03;7.70;;;;;;;16.88;48.27;101397.88;5010236;28;20432;-79
2023/05/14 05:47:40;;;;;;;8.63;7.30;;;;;;;16.58;47.52;101405.19;5029301;28;20444;-78
2023/05/14 05:50:11;;;;;;;8.23;7.57;;;;;;;16.40;48.04;101395.09;4993096;28;20588;-79
2023/05/14 05:52:40;;;;;;;8.20;7.43;;;;;;;16.43;48.56;101404.72;4996240;28;20437;-79
2023/05/14 05:55:12;;;;;;;9.93;7.67;;;;;;;16.36;48.02;101401.25;4994109;28;20442;-79
2023/05/14 05:57:41;;;;;;;8.07;7.20;;;;;;;16.41;48.62;101404.94;5004445;28;20459;-80
2023/05/14 06:00:15;;;;;;;11.20;7.00;;;;;;;16.38;48.36;101394.47;4985108;28;20488;-79
2023/05/14 06:02:45;;;;;;;10.30;7.00;;;;;;;16.60;47.91;101394.88;4984645;28;20425;-81
2023/05/14 06:05:14;;;;;;;8.03;7.23;;;;;;;16.63;47.62;101385.38;4983781;28;20988;-80
2023/05/14 06:07:43;;;;;;;9.07;8.03;;;;;;;16.77;47.74;101393.19;4988477;28;20411;-80
2023/05/14 06:10:14;;;;;;;7.60;6.90;;;;;;;16.94;46.42;101390.66;4996012;28;20418;-80
2023/05/14 06:12:43;;;;;;;9.70;8.40;;;;;;;17.26;45.84;101391.22;5011788;28;20447;-79
2023/05/14 06:15:13;;;;;;;8.90;7.23;;;;;;;17.46;45.48;101386.25;4995431;28;20420;-78
2023/05/14 06:17:42;;;;;;;10.10;6.67;;;;;;;17.59;44.86;101394.28;4994826;28;20421;-78
2023/05/14 06:20:12;;;;;;;8.07;7.20;;;;;;;17.63;44.85;101398.19;4983686;28;20482;-80
2023/05/14 06:22:41;;;;;;;10.23;7.90;;;;;;;17.59;44.50;101396.16;4981728;28;21019;-80
2023/05/14 06:25:11;;;;;;;7.70;6.90;;;;;;;17.61;44.22;101394.88;4982243;28;20932;-80
2023/05/14 06:27:41;;;;;;;8.97;7.10;;;;;;;17.60;43.98;101390.47;5008925;28;20420;-81
2023/05/14 06:30:12;;;;;;;7.30;6.60;;;;;;;17.73;43.82;101392.97;4980454;28;20458;-80
2023/05/14 06:32:41;;;;;;;9.53;5.43;;;;;;;17.66;43.40;101386.78;5012932;28;20469;-81
2023/05/14 06:35:11;;;;;;;11.53;6.60;;;;;;;17.63;44.00;101392.72;4997152;28;20472;-81
2023/05/14 06:37:40;;;;;;;8.20;6.23;;;;;;;17.78;43.58;101395.00;4995036;28;20431;-80
2023/05/14 06:40:10;;;;;;;6.80;5.93;;;;;;;17.90;43.29;101392.28;4980600;28;20483;-81
2023/05/14 06:42:40;;;;;;;10.00;6.10;;;;;;;17.81;42.94;101395.34;4981749;28;20481;-80
2023/05/14 06:45:10;;;;;;;9.33;6.90;;;;;;;17.80;43.22;101390.97;5013256;28;20470;-80
2023/05/14 06:47:40;;;;;;;7.73;5.83;;;;;;;18.02;43.22;101391.19;4979992;28;20442;-80
2023/05/14 06:50:10;;;;;;;7.07;5.97;;;;;;;18.13;42.53;101392.25;4981212;28;20420;-82
2023/05/14 06:52:39;;;;;;;8.07;6.20;;;;;;;18.23;43.64;101392.47;4979372;28;20405;-82
2023/05/14 06:55:09;;;;;;;6.50;5.90;;;;;;;18.45;43.53;101389.91;4978295;28;20459;-80
2023/05/14 06:57:40;;;;;;;10.60;9.30;;;;;;;18.61;41.73;101395.50;4981802;28;20420;-80
2023/05/14 07:00:10;;;;;;;10.23;6.57;;;;;;;18.76;41.33;101392.25;4988622;28;21016;-80
2023/05/14 07:02:39;;;;;;;11.30;6.50;;;;;;;18.76;40.94;101385.94;4994206;28;20451;-80
2023/05/14 07:05:08;;;;;;;13.50;6.43;;;;;;;18.62;41.18;101397.19;4976116;28;20474;-79
2023/05/14 07:07:38;;;;;;;6.77;6.17;;;;;;;18.58;41.21;101396.00;4976492;28;20489;-81
2023/05/14 07:10:08;;;;;;;7.30;5.93;;;;;;;18.71;40.90;101394.88;4976028;28;20409;-81
2023/05/14 07:12:37;;;;;;;7.63;5.70;;;;;;;18.67;41.53;101394.53;4985593;28;20415;-83
2023/05/14 07:15:09;;;;;;;7.13;6.40;;;;;;;18.65;41.55;101396.69;4991961;28;20448;-80
2023/05/14 07:17:38;;;;;;;6.03;5.43;;;;;;;18.89;41.13;101382.88;4972834;28;20735;-80
2023/05/14 07:20:08;;;;;;;7.40;5.80;;;;;;;18.89;41.20;101388.38;4978600;28;20458;-77
2023/05/14 07:22:37;;;;;;;7.03;5.67;;;;;;;18.93;39.82;101386.78;4982416;28;20498;-84
2023/05/14 07:25:07;;;;;;;6.83;6.23;;;;;;;18.94;39.86;101393.94;4983585;28;20535;-80
2023/05/14 07:27:36;;;;;;;6.07;5.47;;;;;;;18.87;40.96;101387.81;4977496;28;20435;-78
2023/05/14 07:30:07;;;;;;;7.70;6.10;;;;;;;18.90;40.86;101387.28;4975950;28;20413;-80
2023/05/14 07:32:36;;;;;;;7.60;6.87;;;;;;;18.86;41.32;101380.66;4979948;28;20406;-80
2023/05/14 07:35:06;;;;;;;7.30;6.07;;;;;;;18.88;41.47;101389.47;4980249;28;20490;-81
2023/05/14 07:37:35;;;;;;;6.50;5.83;;;;;;;18.87;41.46;101377.66;4992801;28;20822;-81
2023/05/14 07:40:05;;;;;;;7.03;6.33;;;;;;;19.02;40.50;101379.88;4976534;28;20493;-79
2023/05/14 07:42:34;;;;;;;6.80;6.17;;;;;;;19.13;40.55;101378.94;4973672;28;20413;-80
2023/05/14 07:45:08;;;;;;;7.03;6.33;;;;;;;19.44;40.24;101372.94;4976428;28;20440;-78
2023/05/14 07:47:37;;;;;;;6.00;5.40;;;;;;;19.71;39.72;101367.59;4976367;28;20433;-81
2023/05/14 07:50:07;;;;;;;6.63;6.00;;;;;;;19.88;38.42;101362.09;4978785;28;20448;-80
2023/05/14 07:52:36;;;;;;;8.40;4.97;;;;;;;20.02;38.85;101366.16;4975323;28;20995;-80
2023/05/14 07:55:06;;;;;;;10.60;6.07;;;;;;;20.00;38.49;101371.06;4975079;28;20970;-80
2023/05/14 07:57:36;;;;;;;5.90;5.47;;;;;;;20.41;38.44;101360.66;4974250;28;20436;-80
2023/05/14 08:00:08;;;;;;;7.07;6.07;;;;;;;20.61;37.65;101360.91;4977121;28;20926;-79
2023/05/14 08:02:44;;;;;;;8.67;5.30;;;;;;;21.11;36.68;101361.41;4978270;28;20916;-81
2023/05/14 08:05:13;;;;;;;5.70;5.13;;;;;;;21.01;35.99;101358.56;4983478;28;20447;-81
2023/05/14 08:07:42;;;;;;;6.67;6.07;;;;;;;20.94;36.71;101355.22;4978746;28;20424;-79
2023/05/14 08:10:12;;;;;;;7.40;6.77;;;;;;;20.90;36.38;101353.25;5008553;28;20456;-81
2023/05/14 08:12:44;;;;;;;7.07;5.90;;;;;;;21.12;35.93;101345.75;4980167;28;20414;-79
2023/05/14 08:15:15;;;;;;;7.03;6.33;;;;;;;21.01;36.19;101350.31;4974509;28;20526;-80
2023/05/14 08:17:44;;;;;;;4.87;4.47;;;;;;;20.68;36.20;101351.34;4996179;28;20446;-80
2023/05/14 08:20:13;;;;;;;6.50;5.17;;;;;;;20.87;36.04;101349.06;4991371;28;20450;-79
2023/05/14 08:22:42;;;;;;;5.83;5.27;;;;;;;21.07;35.80;101338.25;4979587;28;20431;-80
2023/05/14 08:25:12;;;;;;;7.83;4.53;;;;;;;21.09;35.17;101341.59;4975814;28;20566;-80
2023/05/14 08:27:41;;;;;;;9.43;5.47;;;;;;;20.62;35.67;101340.56;4982413;28;20427;-81
2023/05/14 08:30:10;;;;;;;8.57;6.00;;;;;;;20.72;35.26;101346.19;4984332;28;20465;-82
2023/05/14 08:32:41;;;;;;;7.93;5.27;;;;;;;20.95;35.52;101345.88;4988076;28;20432;-78
2023/05/14 08:35:10;;;;;;;5.63;5.10;;;;;;;21.07;34.76;101337.44;4980038;28;20455;-81
2023/05/14 08:37:40;;;;;;;5.80;4.83;;;;;;;20.99;35.25;101340.66;4981954;28;20410;-80
2023/05/14 08:40:10;;;;;;;6.40;4.97;;;;;;;21.22;34.73;101330.19;4980364;28;20411;-80
2023/05/14 08:42:40;;;;;;;5.73;5.13;;;;;;;21.39;35.12;101332.81;4985184;28;20407;-82
2023/05/14 08:45:16;;;;;;;5.90;5.10;;;;;;;21.56;35.43;101335.41;4978722;28;20706;-80
2023/05/14 08:47:49;;;;;;;5.90;5.33;;;;;;;21.60;34.66;101331.03;4977438;28;20401;-80
2023/05/14 08:50:18;;;;;;;6.00;5.40;;;;;;;22.10;34.34;101327.78;4967574;28;20453;-80
2023/05/14 08:52:51;;;;;;;5.47;4.03;;;;;;;21.98;34.02;101327.16;4978575;28;20429;-80
2023/05/14 08:55:21;;;;;;;7.17;5.20;;;;;;;22.05;33.95;101322.25;4977188;28;20475;-79
2023/05/14 08:57:50;;;;;;;10.10;5.50;;;;;;;21.75;33.90;101328.38;4977868;28;20464;-80
2023/05/14 09:00:19;;;;;;;5.77;4.53;;;;;;;21.81;33.53;101327.31;4980548;28;20476;-80
2023/05/14 09:02:50;;;;;;;5.73;5.13;;;;;;;21.84;34.47;101321.25;4977869;28;20478;-80
2023/05/14 09:05:21;;;;;;;6.27;5.50;;;;;;;21.90;34.26;101314.69;4978143;28;20498;-79
2023/05/14 09:07:50;;;;;;;6.30;4.87;;;;;;;21.99;33.76;101313.13;4977572;28;20481;-81
2023/05/14 09:10:20;;;;;;;6.70;6.00;;;;;;;21.98;34.26;101308.69;4980025;28;20662;-80
2023/05/14 09:12:50;;;;;;;10.40;6.50;;;;;;;22.33;33.61;101307.19;4992319;28;20454;-83
2023/05/14 09:15:20;;;;;;;6.20;5.07;;;;;;;22.55;32.88;101305.06;4996452;28;20504;-84
2023/05/14 09:17:51;;;;;;;5.33;4.80;;;;;;;22.33;33.20;101307.19;4998886;28;20431;-80
2023/05/14 09:20:22;;;;;;;6.07;5.13;;;;;;;22.73;33.11;101303.75;4992789;28;20452;-79
2023/05/14 09:22:54;;;;;;;5.50;5.00;;;;;;;22.74;31.87;101299.91;4989579;28;20466;-84
2023/05/14 09:25:27;;;;;;;5.13;4.73;;;;;;;23.32;32.09;101291.09;4998840;28;20490;-81
2023/05/14 09:27:57;;;;;;;5.67;5.17;;;;;;;23.06;31.64;101296.91;4988867;28;20409;-81
2023/05/14 09:30:27;;;;;;;7.43;5.00;;;;;;;22.46;32.33;101284.66;4979694;28;20413;-79
2023/05/14 09:32:57;;;;;;;7.03;5.50;;;;;;;22.78;31.66;101293.56;4976781;28;20474;-79
2023/05/14 09:35:26;;;;;;;4.50;3.77;;;;;;;22.30;32.98;101280.19;4979806;28;20421;-82
2023/05/14 09:37:56;;;;;;;5.07;4.13;;;;;;;22.22;33.26;101275.19;4987022;28;20798;-81
2023/05/14 09:40:26;;;;;;;4.90;4.40;;;;;;;22.06;33.84;101269.63;5003666;28;20916;-79
2023/05/14 09:42:55;;;;;;;5.67;5.17;;;;;;;22.05;33.91;101265.19;4978155;28;20465;-80
2023/05/14 09:45:24;;;;;;;8.17;4.73;;;;;;;21.79;33.86;101263.38;4980198;28;20470;-79
2023/05/14 09:47:54;;;;;;;8.53;4.60;;;;;;;21.62;34.47;101258.06;4977451;28;20435;-79
2023/05/14 09:50:25;;;;;;;9.03;4.77;;;;;;;21.85;34.28;101251.28;4984532;28;20442;-79
2023/05/14 09:52:56;;;;;;;6.43;5.30;;;;;;;21.82;33.76;101251.00;4972012;28;20400;-78
2023/05/14 09:55:25;;;;;;;6.10;4.53;;;;;;;21.83;34.27;101242.50;4976002;28;20466;-80
2023/05/14 09:57:54;;;;;;;6.40;5.73;;;;;;;21.83;34.93;101242.50;4973024;28;20434;-79
2023/05/14 10:00:24;;;;;;;4.97;4.40;;;;;;;21.73;35.14;101242.44;4974413;28;20489;-81
2023/05/14 10:02:55;;;;;;;5.30;4.70;;;;;;;21.63;35.35;101225.84;4980958;28;20489;-81
2023/05/14 10:05:26;;;;;;;5.00;4.60;;;;;;;21.40;35.68;101251.03;4975444;28;20983;-81
2023/05/14 10:07:59;;;;;;;5.40;4.83;;;;;;;21.05;36.28;101235.91;4976073;28;20448;-81
2023/05/14 10:10:30;;;;;;;8.50;5.07;;;;;;;21.09;36.29;101231.53;5006862;28;20841;-79
2023/05/14 10:13:03;;;;;;;5.03;4.63;;;;;;;21.22;35.70;101227.50;4979476;28;20424;-80
2023/05/14 10:15:37;;;;;;;5.20;4.80;;;;;;;21.50;35.06;101221.63;4974491;28;20561;-82
2023/05/14 10:18:10;;;;;;;5.53;4.90;;;;;;;21.36;34.39;101219.63;4975476;28;20935;-82
2023/05/14 10:20:42;;;;;;;10.40;4.63;;;;;;;21.54;35.33;101220.00;4980232;28;20968;-79
2023/05/14 10:23:11;;;;;;;6.10;5.50;;;;;;;21.59;34.66;101214.53;4984111;28;20550;-83
2023/05/14 10:25:41;;;;;;;6.00;5.40;;;;;;;21.56;35.03;101201.31;4985533;28;20431;-76
2023/05/14 10:28:10;;;;;;;4.97;4.50;;;;;;;21.10;34.91;101205.69;4986767;28;20433;-83
2023/05/14 10:30:45;;;;;;;6.30;4.70;;;;;;;21.05;35.09;101202.88;4995118;28;20395;-85
2023/05/14 10:33:17;;;;;;;7.87;7.07;;;;;;;21.03;34.80;101196.81;4988863;28;20928;-79
2023/05/14 10:36:00;;;;;;;5.60;4.97;;;;;;;21.40;34.02;101195.97;4976026;28;20432;-76
2023/05/14 10:38:29;;;;;;;6.20;5.07;;;;;;;21.24;34.38;101195.06;4974819;28;20407;-79
2023/05/14 10:41:03;;;;;;;6.13;5.53;;;;;;;21.84;33.71;101183.50;4974860;28;20737;-77
2023/05/14 10:43:38;;;;;;;6.20;4.63;;;;;;;21.79;34.08;101193.69;4974988;28;20454;-78
2023/05/14 10:46:08;;;;;;;5.87;5.27;;;;;;;21.28;33.40;101187.09;4974943;28;20473;-77
2023/05/14 10:48:41;;;;;;;6.10;5.50;;;;;;;21.30;34.00;101191.22;4976815;28;20467;-77
2023/05/14 10:51:12;;;;;;;11.43;5.93;;;;;;;21.12;33.86;101177.88;4958494;29;20412;-78
2023/05/14 10:53:42;;;;;;;7.73;5.20;;;;;;;21.25;33.73;101183.75;4958780;29;20501;-76
2023/05/14 10:56:13;;;;;;;5.60;5.10;;;;;;;21.26;33.70;101190.09;4983759;28;20506;-78
2023/05/14 10:58:43;;;;;;;6.13;5.20;;;;;;;21.47;33.86;101182.81;4981033;28;20495;-80
2023/05/14 11:01:13;;;;;;;8.47;6.30;;;;;;;21.80;33.07;101171.38;4974987;28;20990;-79
2023/05/14 11:03:43;;;;;;;7.17;6.40;;;;;;;21.68;33.44;101179.06;4984881;28;20463;-79
2023/05/14 11:06:17;;;;;;;12.63;6.27;;;;;;;21.95;33.82;101174.22;4986419;28;20425;-78
2023/05/14 11:08:46;;;;;;;6.40;5.80;;;;;;;21.80;33.25;101170.53;4982702;28;20467;-78
2023/05/14 11:11:15;;;;;;;11.27;6.57;;;;;;;21.62;33.44;101177.38;5000353;28;20439;-81
2023/05/14 11:13:44;;;;;;;5.87;5.27;;;;;;;21.28;33.65;101178.84;5007739;28;20413;-76
2023/05/14 11:16:17;;;;;;;8.20;5.70;;;;;;;21.01;33.95;101179.72;4993786;28;20470;-77
2023/05/14 11:19:02;;;;;;;6.97;6.13;;;;;;;20.70;34.30;101175.09;4992845;28;20429;-78
2023/05/14 11:21:33;;;;;;;7.00;6.40;;;;;;;20.89;34.17;101159.84;4995593;28;20425;-77
2023/05/14 11:24:04;;;;;;;7.03;5.90;;;;;;;20.86;34.40;101165.06;4993326;28;20510;-78
2023/05/14 11:26:33;;;;;;;5.93;5.33;;;;;;;20.81;34.30;101158.41;4995246;28;20468;-76
2023/05/14 11:29:04;;;;;;;7.13;5.63;;;;;;;20.96;34.69;101154.91;4993872;28;20443;-77
2023/05/14 11:31:33;;;;;;;7.83;6.20;;;;;;;21.22;34.40;101148.53;5027361;28;20445;-77
2023/05/14 11:34:05;;;;;;;7.10;5.70;;;;;;;21.52;33.88;101158.03;4996277;28;20427;-78